sensor_id;sensor_type;location;lat;lon;timestamp;pressure;altitude;pressure_sealevel;temperature
71807;BMP280;59655;42.590;23.364;2023-12-07T00:01:01;90970.78;;;4.35
71807;BMP280;59655;42.590;23.364;2023-12-07T00:03:27;90972.41;;;4.38
71807;BMP280;59655;42.590;23.364;2023-12-07T00:05:52;90976.22;;;4.37
71807;BMP280;59655;42.590;23.364;2023-12-07T00:08:18;90972.41;;;4.38
71807;BMP280;59655;42.590;23.364;2023-12-07T00:10:43;90978.84;;;4.37
71807;BMP280;59655;42.590;23.364;2023-12-07T00:13:09;90980.28;;;4.38
71807;BMP280;59655;42.590;23.364;2023-12-07T00:15:34;90983.81;;;4.41
71807;BMP280;59655;42.590;23.364;2023-12-07T00:17:59;90987.16;;;4.41
71807;BMP280;59655;42.590;23.364;2023-12-07T00:20:25;90980.19;;;4.44
71807;BMP280;59655;42.590;23.364;2023-12-07T00:22:51;90984.00;;;4.43
71807;BMP280;59655;42.590;23.364;2023-12-07T00:25:16;90986.84;;;4.45
71807;BMP280;59655;42.590;23.364;2023-12-07T00:27:41;90997.34;;;4.45
71807;BMP280;59655;42.590;23.364;2023-12-07T00:30:07;90989.25;;;4.43
71807;BMP280;59655;42.590;23.364;2023-12-07T00:32:33;90988.06;;;4.44
71807;BMP280;59655;42.590;23.364;2023-12-07T00:34:58;90985.94;;;4.42
71807;BMP280;59655;42.590;23.364;2023-12-07T00:37:24;90998.88;;;4.40
71807;BMP280;59655;42.590;23.364;2023-12-07T00:39:49;90987.31;;;4.43
71807;BMP280;59655;42.590;23.364;2023-12-07T00:42:14;90996.63;;;4.45
71807;BMP280;59655;42.590;23.364;2023-12-07T00:44:40;90984.69;;;4.43
71807;BMP280;59655;42.590;23.364;2023-12-07T00:47:06;90991.88;;;4.43
71807;BMP280;59655;42.590;23.364;2023-12-07T00:49:31;91005.00;;;4.43
71807;BMP280;59655;42.590;23.364;2023-12-07T00:51:56;90991.00;;;4.40
71807;BMP280;59655;42.590;23.364;2023-12-07T00:54:22;90992.69;;;4.38
71807;BMP280;59655;42.590;23.364;2023-12-07T00:56:47;90984.53;;;4.41
71807;BMP280;59655;42.590;23.364;2023-12-07T00:59:12;90982.06;;;4.43
71807;BMP280;59655;42.590;23.364;2023-12-07T01:01:37;90974.19;;;4.43
71807;BMP280;59655;42.590;23.364;2023-12-07T01:04:04;90971.56;;;4.43
71807;BMP280;59655;42.590;23.364;2023-12-07T01:06:30;90991.28;;;4.37
71807;BMP280;59655;42.590;23.364;2023-12-07T01:08:56;90985.34;;;4.36
71807;BMP280;59655;42.590;23.364;2023-12-07T01:11:21;90980.28;;;4.38
71807;BMP280;59655;42.590;23.364;2023-12-07T01:13:47;90981.00;;;4.39
71807;BMP280;59655;42.590;23.364;2023-12-07T01:16:12;90980.28;;;4.38
71807;BMP280;59655;42.590;23.364;2023-12-07T01:18:37;90974.03;;;4.41
71807;BMP280;59655;42.590;23.364;2023-12-07T01:21:03;90972.78;;;4.42
71807;BMP280;59655;42.590;23.364;2023-12-07T01:23:28;90980.88;;;4.45
71807;BMP280;59655;42.590;23.364;2023-12-07T01:25:53;90975.63;;;4.45
71807;BMP280;59655;42.590;23.364;2023-12-07T01:28:19;90981.38;;;4.43
71807;BMP280;59655;42.590;23.364;2023-12-07T01:30:44;90969.16;;;4.46
71807;BMP280;59655;42.590;23.364;2023-12-07T01:33:09;90962.81;;;4.41
71807;BMP280;59655;42.590;23.364;2023-12-07T01:35:35;90964.19;;;4.42
71807;BMP280;59655;42.590;23.364;2023-12-07T01:38:00;90957.75;;;4.43
71807;BMP280;59655;42.590;23.364;2023-12-07T01:40:25;90950.06;;;4.45
71807;BMP280;59655;42.590;23.364;2023-12-07T01:42:53;90956.03;;;4.46
71807;BMP280;59655;42.590;23.364;2023-12-07T01:45:20;90950.56;;;4.43
71807;BMP280;59655;42.590;23.364;2023-12-07T01:47:46;90946.75;;;4.45
71807;BMP280;59655;42.590;23.364;2023-12-07T01:50:13;90952.69;;;4.45
71807;BMP280;59655;42.590;23.364;2023-12-07T01:52:45;90952.19;;;4.47
71807;BMP280;59655;42.590;23.364;2023-12-07T01:55:13;90950.28;;;4.47
71807;BMP280;59655;42.590;23.364;2023-12-07T01:57:39;90952.41;;;4.49
71807;BMP280;59655;42.590;23.364;2023-12-07T02:00:06;90952.41;;;4.49
71807;BMP280;59655;42.590;23.364;2023-12-07T02:02:32;90962.41;;;4.50
71807;BMP280;59655;42.590;23.364;2023-12-07T02:04:58;90954.03;;;4.52
71807;BMP280;59655;42.590;23.364;2023-12-07T02:07:23;90958.75;;;4.53
71807;BMP280;59655;42.590;23.364;2023-12-07T02:09:49;90961.41;;;4.53
71807;BMP280;59655;42.590;23.364;2023-12-07T02:12:14;90958.28;;;4.55
71807;BMP280;59655;42.590;23.364;2023-12-07T02:14:40;90961.91;;;4.52
71807;BMP280;59655;42.590;23.364;2023-12-07T02:19:47;90959.06;;;4.50
71807;BMP280;59655;42.590;23.364;2023-12-07T02:22:25;90960.06;;;4.47
71807;BMP280;59655;42.590;23.364;2023-12-07T02:25:05;90945.03;;;4.47
71807;BMP280;59655;42.590;23.364;2023-12-07T02:27:38;90950.97;;;4.48
71807;BMP280;59655;42.590;23.364;2023-12-07T02:30:07;90948.16;;;4.46
71807;BMP280;59655;42.590;23.364;2023-12-07T02:32:32;90949.97;;;4.51
71807;BMP280;59655;42.590;23.364;2023-12-07T02:34:58;90945.63;;;4.53
71807;BMP280;59655;42.590;23.364;2023-12-07T02:37:27;90948.47;;;4.55
71807;BMP280;59655;42.590;23.364;2023-12-07T02:39:55;90947.75;;;4.55
71807;BMP280;59655;42.590;23.364;2023-12-07T02:42:21;90941.81;;;4.54
71807;BMP280;59655;42.590;23.364;2023-12-07T02:44:49;90943.75;;;4.54
71807;BMP280;59655;42.590;23.364;2023-12-07T02:47:15;90941.09;;;4.54
71807;BMP280;59655;42.590;23.364;2023-12-07T02:49:40;90943.00;;;4.53
71807;BMP280;59655;42.590;23.364;2023-12-07T02:52:06;90939.47;;;4.51
71807;BMP280;59655;42.590;23.364;2023-12-07T02:54:31;90946.66;;;4.50
71807;BMP280;59655;42.590;23.364;2023-12-07T02:56:56;90948.78;;;4.52
71807;BMP280;59655;42.590;23.364;2023-12-07T02:59:22;90941.41;;;4.50
71807;BMP280;59655;42.590;23.364;2023-12-07T03:01:47;90950.78;;;4.46
71807;BMP280;59655;42.590;23.364;2023-12-07T03:04:12;90948.66;;;4.44
71807;BMP280;59655;42.590;23.364;2023-12-07T03:06:38;90950.06;;;4.45
71807;BMP280;59655;42.590;23.364;2023-12-07T03:09:03;90946.03;;;4.44
71807;BMP280;59655;42.590;23.364;2023-12-07T03:11:28;90937.75;;;4.40
71807;BMP280;59655;42.590;23.364;2023-12-07T03:13:54;90946.34;;;4.40
71807;BMP280;59655;42.590;23.364;2023-12-07T03:16:19;90946.16;;;4.38
71807;BMP280;59655;42.590;23.364;2023-12-07T03:18:44;90953.69;;;4.42
71807;BMP280;59655;42.590;23.364;2023-12-07T03:21:10;90955.44;;;4.39
71807;BMP280;59655;42.590;23.364;2023-12-07T03:23:35;90957.56;;;4.41
71807;BMP280;59655;42.590;23.364;2023-12-07T03:26:01;90964.31;;;4.36
71807;BMP280;59655;42.590;23.364;2023-12-07T03:28:26;90963.81;;;4.38
71807;BMP280;59655;42.590;23.364;2023-12-07T03:30:51;90960.19;;;4.41
71807;BMP280;59655;42.590;23.364;2023-12-07T03:33:17;90967.53;;;4.42
71807;BMP280;59655;42.590;23.364;2023-12-07T03:35:42;90966.31;;;4.43
71807;BMP280;59655;42.590;23.364;2023-12-07T03:38:08;90966.81;;;4.42
71807;BMP280;59655;42.590;23.364;2023-12-07T03:40:33;90967.75;;;4.45
71807;BMP280;59655;42.590;23.364;2023-12-07T03:42:58;90968.38;;;4.51
71807;BMP280;59655;42.590;23.364;2023-12-07T03:45:24;90968.16;;;4.49
71807;BMP280;59655;42.590;23.364;2023-12-07T03:47:49;90965.13;;;4.45
71807;BMP280;59655;42.590;23.364;2023-12-07T03:50:15;90958.44;;;4.43
71807;BMP280;59655;42.590;23.364;2023-12-07T03:52:40;90957.16;;;4.50
71807;BMP280;59655;42.590;23.364;2023-12-07T03:55:06;90965.25;;;4.52
71807;BMP280;59655;42.590;23.364;2023-12-07T03:57:31;90961.47;;;4.48
71807;BMP280;59655;42.590;23.364;2023-12-07T03:59:57;90956.94;;;4.48
71807;BMP280;59655;42.590;23.364;2023-12-07T04:02:22;90962.22;;;4.48
71807;BMP280;59655;42.590;23.364;2023-12-07T04:04:48;90952.91;;;4.47
71807;BMP280;59655;42.590;23.364;2023-12-07T04:07:13;90952.19;;;4.47
71807;BMP280;59655;42.590;23.364;2023-12-07T04:09:38;90954.81;;;4.47
71807;BMP280;59655;42.590;23.364;2023-12-07T04:12:04;90953.59;;;4.48
71807;BMP280;59655;42.590;23.364;2023-12-07T04:14:29;90955.63;;;4.41
71807;BMP280;59655;42.590;23.364;2023-12-07T04:16:54;90966.13;;;4.41
71807;BMP280;59655;42.590;23.364;2023-12-07T04:19:20;90964.75;;;4.40
71807;BMP280;59655;42.590;23.364;2023-12-07T04:21:45;90970.78;;;4.35
71807;BMP280;59655;42.590;23.364;2023-12-07T04:24:11;90971.47;;;4.36
71807;BMP280;59655;42.590;23.364;2023-12-07T04:26:36;90973.81;;;4.39
71807;BMP280;59655;42.590;23.364;2023-12-07T04:29:02;90980.66;;;4.42
71807;BMP280;59655;42.590;23.364;2023-12-07T04:31:27;90978.75;;;4.43
71807;BMP280;59655;42.590;23.364;2023-12-07T04:33:52;90983.00;;;4.46
71807;BMP280;59655;42.590;23.364;2023-12-07T04:36:18;90978.03;;;4.42
71807;BMP280;59655;42.590;23.364;2023-12-07T04:38:43;90983.63;;;4.39
71807;BMP280;59655;42.590;23.364;2023-12-07T04:41:08;90979.56;;;4.38
71807;BMP280;59655;42.590;23.364;2023-12-07T04:43:34;90991.69;;;4.41
71807;BMP280;59655;42.590;23.364;2023-12-07T04:45:59;90983.19;;;4.35
71807;BMP280;59655;42.590;23.364;2023-12-07T04:48:24;90990.06;;;4.38
71807;BMP280;59655;42.590;23.364;2023-12-07T04:50:51;90995.53;;;4.40
71807;BMP280;59655;42.590;23.364;2023-12-07T05:10:11;91002.84;;;4.60
71807;BMP280;59655;42.590;23.364;2023-12-07T05:12:36;90992.81;;;4.59
71807;BMP280;59655;42.590;23.364;2023-12-07T05:15:02;90994.34;;;4.54
71807;BMP280;59655;42.590;23.364;2023-12-07T05:17:29;91006.56;;;4.52
71807;BMP280;59655;42.590;23.364;2023-12-07T05:19:54;91005.13;;;4.51
71807;BMP280;59655;42.590;23.364;2023-12-07T05:22:20;91011.28;;;4.53
71807;BMP280;59655;42.590;23.364;2023-12-07T05:24:46;91013.41;;;4.55
71807;BMP280;59655;42.590;23.364;2023-12-07T05:27:12;91018.47;;;4.53
71807;BMP280;59655;42.590;23.364;2023-12-07T05:29:37;91020.88;;;4.51
71807;BMP280;59655;42.590;23.364;2023-12-07T05:32:03;91014.66;;;4.54
71807;BMP280;59655;42.590;23.364;2023-12-07T05:34:29;91021.31;;;4.55
71807;BMP280;59655;42.590;23.364;2023-12-07T05:36:54;91029.88;;;4.55
71807;BMP280;59655;42.590;23.364;2023-12-07T05:39:20;91030.63;;;4.56
71807;BMP280;59655;42.590;23.364;2023-12-07T05:41:46;91033.94;;;4.56
71807;BMP280;59655;42.590;23.364;2023-12-07T05:44:12;91029.19;;;4.55
71807;BMP280;59655;42.590;23.364;2023-12-07T05:46:37;91025.16;;;4.54
71807;BMP280;59655;42.590;23.364;2023-12-07T05:49:04;91026.56;;;4.55
71807;BMP280;59655;42.590;23.364;2023-12-07T05:51:29;91019.38;;;4.55
71807;BMP280;59655;42.590;23.364;2023-12-07T05:53:54;91025.34;;;4.56
71807;BMP280;59655;42.590;23.364;2023-12-07T05:56:20;91028.69;;;4.56
71807;BMP280;59655;42.590;23.364;2023-12-07T05:58:45;91027.25;;;4.55
71807;BMP280;59655;42.590;23.364;2023-12-07T06:01:11;91027.97;;;4.56
71807;BMP280;59655;42.590;23.364;2023-12-07T06:03:36;91025.16;;;4.54
71807;BMP280;59655;42.590;23.364;2023-12-07T06:06:01;91029.19;;;4.55
71807;BMP280;59655;42.590;23.364;2023-12-07T06:08:27;91031.19;;;4.49
71807;BMP280;59655;42.590;23.364;2023-12-07T06:10:52;91037.06;;;4.55
71807;BMP280;59655;42.590;23.364;2023-12-07T06:13:18;91040.19;;;4.53
71807;BMP280;59655;42.590;23.364;2023-12-07T06:15:44;91037.06;;;4.55
71807;BMP280;59655;42.590;23.364;2023-12-07T06:18:09;91042.31;;;4.55
71807;BMP280;59655;42.590;23.364;2023-12-07T06:20:35;91047.38;;;4.53
71807;BMP280;59655;42.590;23.364;2023-12-07T06:23:00;91042.53;;;4.57
71807;BMP280;59655;42.590;23.364;2023-12-07T06:25:27;91051.09;;;4.57
71807;BMP280;59655;42.590;23.364;2023-12-07T06:27:52;91047.97;;;4.59
71807;BMP280;59655;42.590;23.364;2023-12-07T06:30:19;91052.03;;;4.60
71807;BMP280;59655;42.590;23.364;2023-12-07T06:32:44;91055.38;;;4.60
71807;BMP280;59655;42.590;23.364;2023-12-07T06:35:13;91050.13;;;4.60
71807;BMP280;59655;42.590;23.364;2023-12-07T06:37:38;91046.25;;;4.61
71807;BMP280;59655;42.590;23.364;2023-12-07T06:40:08;91061.13;;;4.59
71807;BMP280;59655;42.590;23.364;2023-12-07T06:42:34;91057.47;;;4.62
71807;BMP280;59655;42.590;23.364;2023-12-07T06:45:00;91060.31;;;4.64
71807;BMP280;59655;42.590;23.364;2023-12-07T06:47:25;91056.47;;;4.65
71807;BMP280;59655;42.590;23.364;2023-12-07T06:49:50;91065.75;;;4.66
71807;BMP280;59655;42.590;23.364;2023-12-07T06:52:16;91062.94;;;4.64
71807;BMP280;59655;42.590;23.364;2023-12-07T06:54:41;91058.38;;;4.65
71807;BMP280;59655;42.590;23.364;2023-12-07T06:57:06;91059.53;;;4.69
71807;BMP280;59655;42.590;23.364;2023-12-07T06:59:32;91059.53;;;4.69
71807;BMP280;59655;42.590;23.364;2023-12-07T07:01:58;91060.22;;;4.70
71807;BMP280;59655;42.590;23.364;2023-12-07T07:04:23;91067.09;;;4.73
71807;BMP280;59655;42.590;23.364;2023-12-07T07:06:48;91066.69;;;4.69
71807;BMP280;59655;42.590;23.364;2023-12-07T07:09:14;91062.78;;;4.75
71807;BMP280;59655;42.590;23.364;2023-12-07T07:11:40;91064.91;;;4.77
71807;BMP280;59655;42.590;23.364;2023-12-07T07:14:06;91066.47;;;4.80
71807;BMP280;59655;42.590;23.364;2023-12-07T07:16:31;91070.03;;;4.82
71807;BMP280;59655;42.590;23.364;2023-12-07T07:18:57;91076.00;;;4.83
71807;BMP280;59655;42.590;23.364;2023-12-07T07:21:23;91069.31;;;4.82
71807;BMP280;59655;42.590;23.364;2023-12-07T07:23:49;91073.59;;;4.85
71807;BMP280;59655;42.590;23.364;2023-12-07T07:26:15;91072.66;;;4.82
71807;BMP280;59655;42.590;23.364;2023-12-07T07:28:42;91076.91;;;4.86
71807;BMP280;59655;42.590;23.364;2023-12-07T07:31:08;91068.03;;;4.89
71807;BMP280;59655;42.590;23.364;2023-12-07T07:33:33;91072.56;;;4.88
71807;BMP280;59655;42.590;23.364;2023-12-07T07:35:58;91076.81;;;4.91
71807;BMP280;59655;42.590;23.364;2023-12-07T07:38:24;91075.41;;;4.90
71807;BMP280;59655;42.590;23.364;2023-12-07T07:40:49;91075.63;;;4.92
71807;BMP280;59655;42.590;23.364;2023-12-07T07:43:15;91071.06;;;4.93
71807;BMP280;59655;42.590;23.364;2023-12-07T07:45:40;91072.06;;;4.90
71807;BMP280;59655;42.590;23.364;2023-12-07T07:48:06;91070.59;;;4.94
71807;BMP280;59655;42.590;23.364;2023-12-07T07:50:32;91076.75;;;4.97
71807;BMP280;59655;42.590;23.364;2023-12-07T07:53:00;91089.34;;;4.98
71807;BMP280;59655;42.590;23.364;2023-12-07T07:55:26;91083.28;;;5.03
71807;BMP280;59655;42.590;23.364;2023-12-07T07:57:52;91088.25;;;5.07
71807;BMP280;59655;42.590;23.364;2023-12-07T08:00:17;91078.75;;;5.04
71807;BMP280;59655;42.590;23.364;2023-12-07T08:02:42;91084.72;;;5.04
71807;BMP280;59655;42.590;23.364;2023-12-07T08:05:08;91087.63;;;5.01
71807;BMP280;59655;42.590;23.364;2023-12-07T08:07:34;91091.38;;;5.06
71807;BMP280;59655;42.590;23.364;2023-12-07T08:09:59;91099.25;;;5.06
71807;BMP280;59655;42.590;23.364;2023-12-07T08:12:25;91095.94;;;5.05
71807;BMP280;59655;42.590;23.364;2023-12-07T08:14:50;91090.19;;;5.07
71807;BMP280;59655;42.590;23.364;2023-12-07T08:17:17;91096.03;;;4.99
71807;BMP280;59655;42.590;23.364;2023-12-07T08:19:44;91103.81;;;4.92
71807;BMP280;59655;42.590;23.364;2023-12-07T08:22:10;91096.13;;;4.94
71807;BMP280;59655;42.590;23.364;2023-12-07T08:24:38;91098.25;;;4.95
71807;BMP280;59655;42.590;23.364;2023-12-07T08:27:04;91103.09;;;4.91
71807;BMP280;59655;42.590;23.364;2023-12-07T08:29:30;91113.00;;;4.85
71807;BMP280;59655;42.590;23.364;2023-12-07T08:31:55;91109.56;;;4.77
71807;BMP280;59655;42.590;23.364;2023-12-07T08:34:20;91111.41;;;4.63
71807;BMP280;59655;42.590;23.364;2023-12-07T08:36:46;91106.09;;;4.69
71807;BMP280;59655;42.590;23.364;2023-12-07T08:39:11;91115.47;;;4.64
71807;BMP280;59655;42.590;23.364;2023-12-07T08:41:36;91111.41;;;4.63
71807;BMP280;59655;42.590;23.364;2023-12-07T08:44:02;91109.44;;;4.69
71807;BMP280;59655;42.590;23.364;2023-12-07T08:46:27;91110.06;;;4.75
71807;BMP280;59655;42.590;23.364;2023-12-07T08:48:53;91112.69;;;4.75
71807;BMP280;59655;42.590;23.364;2023-12-07T08:51:19;91110.34;;;4.72
71807;BMP280;59655;42.590;23.364;2023-12-07T08:53:44;91115.09;;;4.73
71807;BMP280;59655;42.590;23.364;2023-12-07T08:56:10;91118.09;;;4.64
71807;BMP280;59655;42.590;23.364;2023-12-07T08:58:38;91118.00;;;4.56
71807;BMP280;59655;42.590;23.364;2023-12-07T09:01:03;91112.88;;;4.45
71807;BMP280;59655;42.590;23.364;2023-12-07T09:03:28;91114.09;;;4.44
71807;BMP280;59655;42.590;23.364;2023-12-07T09:06:00;91110.56;;;4.41
71807;BMP280;59655;42.590;23.364;2023-12-07T09:08:25;91108.34;;;4.46
71807;BMP280;59655;42.590;23.364;2023-12-07T09:10:51;91112.66;;;4.43
71807;BMP280;59655;42.590;23.364;2023-12-07T09:13:17;91118.94;;;4.40
71807;BMP280;59655;42.590;23.364;2023-12-07T09:15:42;91109.88;;;4.41
71807;BMP280;59655;42.590;23.364;2023-12-07T09:18:08;91110.44;;;4.34
71807;BMP280;59655;42.590;23.364;2023-12-07T09:20:33;91109.16;;;4.21
71807;BMP280;59655;42.590;23.364;2023-12-07T09:22:58;91113.13;;;4.09
71807;BMP280;59655;42.590;23.364;2023-12-07T09:25:24;91116.03;;;4.25
71807;BMP280;59655;42.590;23.364;2023-12-07T09:27:53;91109.31;;;4.29
71807;BMP280;59655;42.590;23.364;2023-12-07T09:30:18;91112.56;;;4.35
71807;BMP280;59655;42.590;23.364;2023-12-07T09:32:44;91111.38;;;4.36
71807;BMP280;59655;42.590;23.364;2023-12-07T09:35:09;91106.31;;;4.38
71807;BMP280;59655;42.590;23.364;2023-12-07T09:37:40;91100.25;;;4.43
71807;BMP280;59655;42.590;23.364;2023-12-07T09:40:07;91105.19;;;4.34
71807;BMP280;59655;42.590;23.364;2023-12-07T09:42:33;91108.75;;;4.36
71807;BMP280;59655;42.590;23.364;2023-12-07T09:44:59;91109.34;;;4.42
71807;BMP280;59655;42.590;23.364;2023-12-07T09:47:26;91102.75;;;4.36
71807;BMP280;59655;42.590;23.364;2023-12-07T09:49:52;91110.06;;;4.24
71807;BMP280;59655;42.590;23.364;2023-12-07T09:52:19;91104.53;;;4.28
71807;BMP280;59655;42.590;23.364;2023-12-07T09:54:46;91106.03;;;4.23
71807;BMP280;59655;42.590;23.364;2023-12-07T09:57:12;91103.28;;;4.15
71807;BMP280;59655;42.590;23.364;2023-12-07T09:59:38;91104.22;;;4.18
71807;BMP280;59655;42.590;23.364;2023-12-07T10:02:05;91108.63;;;4.10
71807;BMP280;59655;42.590;23.364;2023-12-07T10:04:31;91096.06;;;4.03
71807;BMP280;59655;42.590;23.364;2023-12-07T10:06:56;91111.25;;;3.91
71807;BMP280;59655;42.590;23.364;2023-12-07T10:09:22;91097.84;;;3.94
71807;BMP280;59655;42.590;23.364;2023-12-07T10:11:48;91105.28;;;3.90
71807;BMP280;59655;42.590;23.364;2023-12-07T10:14:14;91100.88;;;3.79
71807;BMP280;59655;42.590;23.364;2023-12-07T10:16:52;91103.72;;;3.81
71807;BMP280;59655;42.590;23.364;2023-12-07T10:19:18;91105.41;;;3.79
71807;BMP280;59655;42.590;23.364;2023-12-07T10:21:47;91105.97;;;3.72
71807;BMP280;59655;42.590;23.364;2023-12-07T10:24:13;91100.66;;;3.77
71807;BMP280;59655;42.590;23.364;2023-12-07T10:26:40;91099.16;;;3.82
71807;BMP280;59655;42.590;23.364;2023-12-07T10:29:05;91098.81;;;3.72
71807;BMP280;59655;42.590;23.364;2023-12-07T10:31:32;91089.13;;;3.67
71807;BMP280;59655;42.590;23.364;2023-12-07T10:33:58;91074.63;;;3.79
71807;BMP280;59655;42.590;23.364;2023-12-07T10:36:24;91086.06;;;3.63
71807;BMP280;59655;42.590;23.364;2023-12-07T10:38:50;91097.31;;;3.58
71807;BMP280;59655;42.590;23.364;2023-12-07T10:41:19;91103.31;;;3.53
71807;BMP280;59655;42.590;23.364;2023-12-07T10:43:49;91082.00;;;3.43
71807;BMP280;59655;42.590;23.364;2023-12-07T10:46:16;91081.00;;;3.46
71807;BMP280;59655;42.590;23.364;2023-12-07T10:48:44;91090.06;;;3.45
71807;BMP280;59655;42.590;23.364;2023-12-07T10:51:17;91086.31;;;3.40
71807;BMP280;59655;42.590;23.364;2023-12-07T10:53:45;91082.78;;;3.38
71807;BMP280;59655;42.590;23.364;2023-12-07T10:56:15;91076.69;;;3.49
71807;BMP280;59655;42.590;23.364;2023-12-07T10:58:42;91073.78;;;3.52
71807;BMP280;59655;42.590;23.364;2023-12-07T11:01:08;91074.56;;;3.47
71807;BMP280;59655;42.590;23.364;2023-12-07T11:03:35;91083.56;;;3.52
71807;BMP280;59655;42.590;23.364;2023-12-07T11:06:02;91082.84;;;3.51
71807;BMP280;59655;42.590;23.364;2023-12-07T11:08:43;91084.81;;;3.45
71807;BMP280;59655;42.590;23.364;2023-12-07T11:13:51;91078.72;;;3.37
71807;BMP280;59655;42.590;23.364;2023-12-07T11:16:17;91080.41;;;3.34
71807;BMP280;59655;42.590;23.364;2023-12-07T11:18:53;91074.75;;;3.30
71807;BMP280;59655;42.590;23.364;2023-12-07T11:21:19;91082.69;;;3.44
71807;BMP280;59655;42.590;23.364;2023-12-07T11:23:44;91080.69;;;3.31
71807;BMP280;59655;42.590;23.364;2023-12-07T11:26:09;91095.34;;;3.21
71807;BMP280;59655;42.590;23.364;2023-12-07T11:28:37;91090.03;;;3.26
71807;BMP280;59655;42.590;23.364;2023-12-07T11:31:03;91089.75;;;3.05
71807;BMP280;59655;42.590;23.364;2023-12-07T11:33:29;91084.19;;;3.14
71807;BMP280;59655;42.590;23.364;2023-12-07T11:36:07;91068.41;;;3.20
71807;BMP280;59655;42.590;23.364;2023-12-07T11:38:36;91074.69;;;3.11
71807;BMP280;59655;42.590;23.364;2023-12-07T11:41:01;91073.31;;;3.05
71807;BMP280;59655;42.590;23.364;2023-12-07T11:46:03;91063.78;;;3.07
71807;BMP280;59655;42.590;23.364;2023-12-07T11:48:29;91062.69;;;3.22
71807;BMP280;59655;42.590;23.364;2023-12-07T11:53:28;91075.72;;;3.03
71807;BMP280;59655;42.590;23.364;2023-12-07T11:55:56;91074.31;;;3.02
71807;BMP280;59655;42.590;23.364;2023-12-07T11:58:22;91067.06;;;3.13
71807;BMP280;59655;42.590;23.364;2023-12-07T12:00:51;91067.16;;;3.02
71807;BMP280;59655;42.590;23.364;2023-12-07T12:03:17;91071.97;;;2.98
71807;BMP280;59655;42.590;23.364;2023-12-07T12:05:42;91057.31;;;2.84
71807;BMP280;59655;42.590;23.364;2023-12-07T12:08:09;91064.66;;;2.61
71807;BMP280;59655;42.590;23.364;2023-12-07T12:10:35;91067.19;;;2.72
71807;BMP280;59655;42.590;23.364;2023-12-07T12:13:04;91074.22;;;2.58
71807;BMP280;59655;42.590;23.364;2023-12-07T12:15:30;91084.94;;;2.54
71807;BMP280;59655;42.590;23.364;2023-12-07T12:17:56;91052.34;;;2.55
71807;BMP280;59655;42.590;23.364;2023-12-07T12:20:22;91057.09;;;2.57
71807;BMP280;59655;42.590;23.364;2023-12-07T12:22:47;91054.78;;;2.48
71807;BMP280;59655;42.590;23.364;2023-12-07T12:25:12;91060.28;;;2.44
71807;BMP280;59655;42.590;23.364;2023-12-07T12:27:39;91057.13;;;2.51
71807;BMP280;59655;42.590;23.364;2023-12-07T12:30:05;91071.25;;;2.37
71807;BMP280;59655;42.590;23.364;2023-12-07T12:32:44;91061.97;;;2.42
71807;BMP280;59655;42.590;23.364;2023-12-07T12:35:10;91065.94;;;2.48
71807;BMP280;59655;42.590;23.364;2023-12-07T12:37:38;91060.97;;;2.45
71807;BMP280;59655;42.590;23.364;2023-12-07T12:40:07;91050.13;;;2.65
71807;BMP280;59655;42.590;23.364;2023-12-07T12:42:33;91060.91;;;2.56
71807;BMP280;59655;42.590;23.364;2023-12-07T12:44:58;91052.34;;;2.55
71807;BMP280;59655;42.590;23.364;2023-12-07T12:47:24;91061.09;;;2.64
71807;BMP280;59655;42.590;23.364;2023-12-07T12:49:49;91053.00;;;2.62
71807;BMP280;59655;42.590;23.364;2023-12-07T12:52:16;91064.44;;;2.58
71807;BMP280;59655;42.590;23.364;2023-12-07T12:54:45;91069.03;;;2.47
71807;BMP280;59655;42.590;23.364;2023-12-07T12:57:11;91087.41;;;2.41
71807;BMP280;59655;42.590;23.364;2023-12-07T12:59:36;91083.16;;;2.38
71807;BMP280;59655;42.590;23.364;2023-12-07T13:02:05;91071.88;;;2.18
71807;BMP280;59655;42.590;23.364;2023-12-07T13:04:30;91070.09;;;2.32
71807;BMP280;59655;42.590;23.364;2023-12-07T13:06:56;91070.75;;;2.44
71807;BMP280;59655;42.590;23.364;2023-12-07T13:09:21;91073.03;;;2.23
71807;BMP280;59655;42.590;23.364;2023-12-07T13:11:47;91072.34;;;2.23
71807;BMP280;59655;42.590;23.364;2023-12-07T13:14:12;91086.78;;;2.29
71807;BMP280;59655;42.590;23.364;2023-12-07T13:16:38;91084.66;;;2.28
71807;BMP280;59655;42.590;23.364;2023-12-07T13:19:03;91075.84;;;2.31
71807;BMP280;59655;42.590;23.364;2023-12-07T13:21:29;91090.75;;;2.42
71807;BMP280;59655;42.590;23.364;2023-12-07T13:23:55;91098.22;;;2.32
71807;BMP280;59655;42.590;23.364;2023-12-07T13:26:22;91090.16;;;2.24
71807;BMP280;59655;42.590;23.364;2023-12-07T13:28:48;91093.72;;;2.27
71807;BMP280;59655;42.590;23.364;2023-12-07T13:31:14;91089.00;;;2.19
71807;BMP280;59655;42.590;23.364;2023-12-07T13:33:39;91098.09;;;2.07
71807;BMP280;59655;42.590;23.364;2023-12-07T13:36:06;91102.19;;;1.97
71807;BMP280;59655;42.590;23.364;2023-12-07T13:38:31;91108.84;;;1.98
71807;BMP280;59655;42.590;23.364;2023-12-07T13:40:57;91108.34;;;1.99
71807;BMP280;59655;42.590;23.364;2023-12-07T13:43:22;91113.13;;;1.95
71807;BMP280;59655;42.590;23.364;2023-12-07T13:45:49;91099.22;;;1.76
71807;BMP280;59655;42.590;23.364;2023-12-07T13:48:15;91108.19;;;1.86
71807;BMP280;59655;42.590;23.364;2023-12-07T13:50:40;91115.59;;;1.76
71807;BMP280;59655;42.590;23.364;2023-12-07T13:53:06;91118.69;;;1.81
71807;BMP280;59655;42.590;23.364;2023-12-07T13:55:35;91120.16;;;1.70
71807;BMP280;59655;42.590;23.364;2023-12-07T13:58:02;91119.44;;;1.64
71807;BMP280;59655;42.590;23.364;2023-12-07T14:00:28;91119.16;;;1.79
71807;BMP280;59655;42.590;23.364;2023-12-07T14:02:53;91126.47;;;1.92
71807;BMP280;59655;42.590;23.364;2023-12-07T14:05:18;91127.44;;;1.83
71807;BMP280;59655;42.590;23.364;2023-12-07T14:07:44;91134.88;;;1.68
71807;BMP280;59655;42.590;23.364;2023-12-07T14:10:10;91132.25;;;1.68
71807;BMP280;59655;42.590;23.364;2023-12-07T14:12:37;91132.75;;;1.66
71807;BMP280;59655;42.590;23.364;2023-12-07T14:15:02;91136.56;;;1.59
71807;BMP280;59655;42.590;23.364;2023-12-07T14:17:28;91142.47;;;1.66
71807;BMP280;59655;42.590;23.364;2023-12-07T14:20:05;91138.00;;;1.55
71807;BMP280;59655;42.590;23.364;2023-12-07T14:22:32;91153.94;;;1.51
71807;BMP280;59655;42.590;23.364;2023-12-07T14:24:58;91146.78;;;1.46
71807;BMP280;59655;42.590;23.364;2023-12-07T14:27:23;91135.66;;;1.40
71807;BMP280;59655;42.590;23.364;2023-12-07T14:29:49;91157.22;;;1.57